sensor_id;sensor_type;location;lat;lon;timestamp;P1;durP1;ratioP1;P2;durP2;ratioP2
37881;SDS011;23724;45.572;12.064;2022-12-01T02:58:16;10.45;;;7.38;;
37881;SDS011;23724;45.572;12.064;2022-12-01T03:03:24;8.57;;;6.20;;
37881;SDS011;23724;45.572;12.064;2022-12-01T03:08:44;10.75;;;7.35;;
37881;SDS011;23724;45.572;12.064;2022-12-01T03:19:30;8.63;;;6.75;;
37881;SDS011;23724;45.572;12.064;2022-12-01T03:24:37;10.50;;;7.07;;
37881;SDS011;23724;45.572;12.064;2022-12-01T03:29:45;9.27;;;6.50;;
37881;SDS011;23724;45.572;12.064;2022-12-01T03:35:00;7.43;;;5.50;;
37881;SDS011;23724;45.572;12.064;2022-12-01T03:40:09;16.63;;;10.93;;
37881;SDS011;23724;45.572;12.064;2022-12-01T03:45:18;17.90;;;10.82;;
37881;SDS011;23724;45.572;12.064;2022-12-01T03:55:40;10.07;;;7.30;;
37881;SDS011;23724;45.572;12.064;2022-12-01T04:00:46;14.20;;;9.43;;
37881;SDS011;23724;45.572;12.064;2022-12-01T04:05:54;9.73;;;7.05;;
37881;SDS011;23724;45.572;12.064;2022-12-01T04:10:58;10.88;;;6.75;;
37881;SDS011;23724;45.572;12.064;2022-12-01T04:16:03;9.13;;;7.07;;
37881;SDS011;23724;45.572;12.064;2022-12-01T04:21:07;10.55;;;7.25;;
37881;SDS011;23724;45.572;12.064;2022-12-01T04:26:12;9.18;;;6.55;;
37881;SDS011;23724;45.572;12.064;2022-12-01T04:31:18;8.77;;;5.78;;
37881;SDS011;23724;45.572;12.064;2022-12-01T04:36:22;17.02;;;11.00;;
37881;SDS011;23724;45.572;12.064;2022-12-01T04:41:27;10.77;;;7.93;;
37881;SDS011;23724;45.572;12.064;2022-12-01T04:46:31;10.95;;;6.65;;
37881;SDS011;23724;45.572;12.064;2022-12-01T04:51:36;10.27;;;6.50;;
37881;SDS011;23724;45.572;12.064;2022-12-01T04:56:40;8.90;;;6.30;;
37881;SDS011;23724;45.572;12.064;2022-12-01T05:01:44;9.00;;;6.47;;
37881;SDS011;23724;45.572;12.064;2022-12-01T05:06:52;10.98;;;7.75;;
37881;SDS011;23724;45.572;12.064;2022-12-01T05:11:58;10.55;;;7.22;;
37881;SDS011;23724;45.572;12.064;2022-12-01T05:17:02;12.07;;;7.07;;
37881;SDS011;23724;45.572;12.064;2022-12-01T05:22:07;8.20;;;5.65;;
37881;SDS011;23724;45.572;12.064;2022-12-01T05:27:11;9.05;;;7.20;;
37881;SDS011;23724;45.572;12.064;2022-12-01T05:32:15;12.25;;;8.13;;
37881;SDS011;23724;45.572;12.064;2022-12-01T05:37:26;10.60;;;7.47;;
37881;SDS011;23724;45.572;12.064;2022-12-01T05:42:51;14.90;;;8.85;;
37881;SDS011;23724;45.572;12.064;2022-12-01T05:47:56;14.30;;;8.68;;
37881;SDS011;23724;45.572;12.064;2022-12-01T05:53:01;13.98;;;9.73;;
37881;SDS011;23724;45.572;12.064;2022-12-01T05:58:06;11.23;;;8.32;;
37881;SDS011;23724;45.572;12.064;2022-12-01T06:03:10;17.15;;;12.30;;
37881;SDS011;23724;45.572;12.064;2022-12-01T06:08:15;11.43;;;9.23;;
37881;SDS011;23724;45.572;12.064;2022-12-01T06:13:19;18.52;;;13.55;;
37881;SDS011;23724;45.572;12.064;2022-12-01T06:18:25;17.30;;;10.52;;
37881;SDS011;23724;45.572;12.064;2022-12-01T06:23:31;23.60;;;14.02;;
37881;SDS011;23724;45.572;12.064;2022-12-01T06:28:35;34.72;;;25.08;;
37881;SDS011;23724;45.572;12.064;2022-12-01T06:33:40;18.08;;;13.35;;
37881;SDS011;23724;45.572;12.064;2022-12-01T06:38:45;22.92;;;14.65;;
37881;SDS011;23724;45.572;12.064;2022-12-01T06:43:50;14.82;;;10.45;;
37881;SDS011;23724;45.572;12.064;2022-12-01T06:48:54;17.50;;;11.18;;
37881;SDS011;23724;45.572;12.064;2022-12-01T06:53:59;17.00;;;11.02;;
37881;SDS011;23724;45.572;12.064;2022-12-01T06:59:08;14.85;;;10.40;;
37881;SDS011;23724;45.572;12.064;2022-12-01T07:04:16;16.20;;;10.30;;
37881;SDS011;23724;45.572;12.064;2022-12-01T07:09:20;19.30;;;13.07;;
37881;SDS011;23724;45.572;12.064;2022-12-01T07:14:25;22.27;;;15.48;;
37881;SDS011;23724;45.572;12.064;2022-12-01T07:19:30;58.78;;;31.60;;
37881;SDS011;23724;45.572;12.064;2022-12-01T07:24:35;25.73;;;17.30;;
37881;SDS011;23724;45.572;12.064;2022-12-01T07:29:38;26.90;;;16.88;;
37881;SDS011;23724;45.572;12.064;2022-12-01T07:34:42;29.95;;;18.58;;
37881;SDS011;23724;45.572;12.064;2022-12-01T07:39:46;40.50;;;25.17;;
37881;SDS011;23724;45.572;12.064;2022-12-01T07:44:50;39.67;;;25.30;;
37881;SDS011;23724;45.572;12.064;2022-12-01T07:49:55;28.52;;;18.85;;
37881;SDS011;23724;45.572;12.064;2022-12-01T07:55:00;28.00;;;17.83;;
37881;SDS011;23724;45.572;12.064;2022-12-01T08:00:05;29.10;;;19.73;;
37881;SDS011;23724;45.572;12.064;2022-12-01T08:05:13;20.95;;;14.73;;
37881;SDS011;23724;45.572;12.064;2022-12-01T08:10:17;15.88;;;11.32;;
37881;SDS011;23724;45.572;12.064;2022-12-01T08:15:22;17.33;;;11.43;;
37881;SDS011;23724;45.572;12.064;2022-12-01T08:20:26;16.55;;;10.60;;
37881;SDS011;23724;45.572;12.064;2022-12-01T08:25:31;10.15;;;7.45;;
37881;SDS011;23724;45.572;12.064;2022-12-01T08:30:35;8.65;;;5.82;;
37881;SDS011;23724;45.572;12.064;2022-12-01T08:35:39;6.68;;;4.68;;
37881;SDS011;23724;45.572;12.064;2022-12-01T08:40:43;8.18;;;3.92;;
37881;SDS011;23724;45.572;12.064;2022-12-01T08:45:47;5.32;;;3.72;;
37881;SDS011;23724;45.572;12.064;2022-12-01T08:50:52;1.17;;;1.05;;
37881;SDS011;23724;45.572;12.064;2022-12-01T08:56:10;1.65;;;1.25;;
37881;SDS011;23724;45.572;12.064;2022-12-01T09:01:17;1.13;;;0.98;;
37881;SDS011;23724;45.572;12.064;2022-12-01T09:06:21;1.42;;;0.80;;
37881;SDS011;23724;45.572;12.064;2022-12-01T09:11:25;1.10;;;1.00;;
37881;SDS011;23724;45.572;12.064;2022-12-01T09:16:30;0.80;;;0.70;;
37881;SDS011;23724;45.572;12.064;2022-12-01T09:21:35;1.42;;;0.80;;
37881;SDS011;23724;45.572;12.064;2022-12-01T09:26:40;0.73;;;0.73;;
37881;SDS011;23724;45.572;12.064;2022-12-01T09:31:45;0.75;;;0.68;;
37881;SDS011;23724;45.572;12.064;2022-12-01T09:36:49;0.80;;;0.80;;
37881;SDS011;23724;45.572;12.064;2022-12-01T09:42:09;0.80;;;0.73;;
37881;SDS011;23724;45.572;12.064;2022-12-01T09:47:23;3.00;;;1.38;;
37881;SDS011;23724;45.572;12.064;2022-12-01T09:52:49;1.88;;;1.20;;
37881;SDS011;23724;45.572;12.064;2022-12-01T09:57:58;2.03;;;1.45;;
37881;SDS011;23724;45.572;12.064;2022-12-01T10:03:08;2.17;;;1.00;;
37881;SDS011;23724;45.572;12.064;2022-12-01T10:08:26;1.77;;;1.27;;
37881;SDS011;23724;45.572;12.064;2022-12-01T10:13:34;1.08;;;0.98;;
37881;SDS011;23724;45.572;12.064;2022-12-01T10:34:22;2.33;;;1.40;;
37881;SDS011;23724;45.572;12.064;2022-12-01T10:39:40;2.47;;;1.52;;
37881;SDS011;23724;45.572;12.064;2022-12-01T10:44:46;2.13;;;1.33;;
37881;SDS011;23724;45.572;12.064;2022-12-01T10:49:51;2.13;;;1.52;;
37881;SDS011;23724;45.572;12.064;2022-12-01T10:54:55;1.80;;;1.48;;
37881;SDS011;23724;45.572;12.064;2022-12-01T11:00:06;2.53;;;1.23;;
37881;SDS011;23724;45.572;12.064;2022-12-01T11:05:36;1.08;;;0.98;;
